createdAt,value
2022-11-27T00:02:30.000Z,5.5
2022-11-27T00:05:15.000Z,5.4
2022-11-27T00:08:00.000Z,5.3
2022-11-27T00:10:44.000Z,5.3
2022-11-27T00:13:29.000Z,5.3
2022-11-27T00:16:14.000Z,5.2
2022-11-27T00:17:31.000Z,5.2
2022-11-27T00:18:58.000Z,5.1
2022-11-27T00:21:43.000Z,5.1
2022-11-27T00:24:28.000Z,4.9
2022-11-27T00:27:12.000Z,4.9
2022-11-27T00:29:57.000Z,4.9
2022-11-27T00:32:42.000Z,5.1
2022-11-27T00:35:26.000Z,5
2022-11-27T00:38:11.000Z,5
2022-11-27T00:40:55.000Z,5
2022-11-27T00:43:40.000Z,4.9
2022-11-27T00:44:58.000Z,4.7
2022-11-27T00:46:25.000Z,4.7
2022-11-27T00:49:09.000Z,4.7
2022-11-27T00:51:54.000Z,4.3
2022-11-27T00:54:39.000Z,4
2022-11-27T00:57:23.000Z,3.9
2022-11-27T01:00:08.000Z,3.9
2022-11-27T01:02:53.000Z,3.8
2022-11-27T01:05:37.000Z,3.7
2022-11-27T01:08:22.000Z,3.7
2022-11-27T01:11:07.000Z,3.8
2022-11-27T01:12:24.000Z,3.7
2022-11-27T01:13:51.000Z,3.8
2022-11-27T01:19:20.000Z,3.9
2022-11-27T01:22:05.000Z,4
2022-11-27T01:24:50.000Z,3.9
2022-11-27T01:27:34.000Z,4
2022-11-27T01:30:19.000Z,4
2022-11-27T01:33:04.000Z,3.9
2022-11-27T01:35:48.000Z,3.8
2022-11-27T01:38:33.000Z,3.7
2022-11-27T01:39:51.000Z,3.5
2022-11-27T01:41:18.000Z,3.4
2022-11-27T01:44:02.000Z,3.4
2022-11-27T01:46:47.000Z,3.4
2022-11-27T01:49:32.000Z,3.5
2022-11-27T01:52:16.000Z,3.5
2022-11-27T01:55:01.000Z,3.4
2022-11-27T01:57:45.000Z,3.3
2022-11-27T02:00:30.000Z,3.2
2022-11-27T02:03:15.000Z,3.2
2022-11-27T02:05:59.000Z,3.1
2022-11-27T02:07:17.000Z,3.1
2022-11-27T02:08:44.000Z,3.1
2022-11-27T02:14:13.000Z,2.9
2022-11-27T02:16:58.000Z,2.9
2022-11-27T02:19:43.000Z,2.9
2022-11-27T02:22:27.000Z,2.8
2022-11-27T02:25:12.000Z,2.9
2022-11-27T02:27:56.000Z,3
2022-11-27T02:30:41.000Z,3.3
2022-11-27T02:33:26.000Z,3.4
2022-11-27T02:34:44.000Z,3.3
2022-11-27T02:36:10.000Z,3.3
2022-11-27T02:38:55.000Z,3.3
2022-11-27T02:41:40.000Z,3.4
2022-11-27T02:44:24.000Z,3.6
2022-11-27T02:47:09.000Z,3.5
2022-11-27T02:49:54.000Z,3.6
2022-11-27T02:52:38.000Z,3.4
2022-11-27T02:55:23.000Z,3.4
2022-11-27T02:58:08.000Z,3.3
2022-11-27T03:00:52.000Z,3.1
2022-11-27T03:02:10.000Z,2.9
2022-11-27T03:03:37.000Z,3
2022-11-27T03:06:21.000Z,2.9
2022-11-27T03:09:06.000Z,2.7
2022-11-27T03:11:51.000Z,2.7
2022-11-27T03:14:35.000Z,2.8
2022-11-27T03:17:20.000Z,2.7
2022-11-27T03:20:05.000Z,2.7
2022-11-27T03:22:49.000Z,2.8
2022-11-27T03:25:34.000Z,2.8
2022-11-27T03:28:19.000Z,2.6
2022-11-27T03:29:36.000Z,2.5
2022-11-27T03:31:03.000Z,2.5
2022-11-27T03:33:48.000Z,2.5
2022-11-27T03:36:33.000Z,2.5
2022-11-27T03:39:17.000Z,2.5
2022-11-27T03:42:02.000Z,2.4
2022-11-27T03:44:46.000Z,2.2
2022-11-27T03:47:31.000Z,2.2
2022-11-27T03:50:16.000Z,2.2
2022-11-27T03:53:00.000Z,2.4
2022-11-27T03:55:45.000Z,2.4
2022-11-27T03:57:03.000Z,2.4
2022-11-27T03:58:30.000Z,2.4
2022-11-27T04:01:14.000Z,2.2
2022-11-27T04:03:59.000Z,2
2022-11-27T04:06:44.000Z,2
2022-11-27T04:09:28.000Z,2.1
2022-11-27T04:12:13.000Z,2.1
2022-11-27T04:14:57.000Z,2.1
2022-11-27T04:17:42.000Z,2.1
2022-11-27T04:20:27.000Z,2
2022-11-27T04:23:11.000Z,1.9
2022-11-27T04:24:29.000Z,1.8
2022-11-27T04:25:56.000Z,1.7
2022-11-27T04:28:41.000Z,1.6
2022-11-27T04:31:25.000Z,1.5
2022-11-27T04:34:10.000Z,1.4
2022-11-27T04:36:55.000Z,1.3
2022-11-27T04:39:39.000Z,1.1
2022-11-27T04:42:24.000Z,1.3
2022-11-27T04:45:09.000Z,1.3
2022-11-27T04:47:53.000Z,1.4
2022-11-27T04:50:38.000Z,1.4
2022-11-27T04:51:56.000Z,1.5
2022-11-27T04:53:22.000Z,1.5
2022-11-27T04:56:07.000Z,1.4
2022-11-27T04:58:52.000Z,1.3
2022-11-27T05:01:36.000Z,1.4
2022-11-27T05:04:21.000Z,1.5
2022-11-27T05:07:06.000Z,1.5
2022-11-27T05:09:50.000Z,1.5
2022-11-27T05:12:35.000Z,1.5
2022-11-27T05:15:20.000Z,1.6
2022-11-27T05:19:22.000Z,2.1
2022-11-27T05:20:49.000Z,2
2022-11-27T05:23:34.000Z,2
2022-11-27T05:26:18.000Z,1.9
2022-11-27T05:29:03.000Z,1.9
2022-11-27T05:31:47.000Z,2
2022-11-27T05:34:32.000Z,2.1
2022-11-27T05:37:17.000Z,2.3
2022-11-27T05:40:01.000Z,2.2
2022-11-27T05:42:46.000Z,2.3
2022-11-27T05:45:31.000Z,2.2
2022-11-27T05:46:49.000Z,2.1
2022-11-27T05:48:32.000Z,2
2022-11-27T05:51:16.000Z,1.9
2022-11-27T05:54:01.000Z,1.9
2022-11-27T05:56:46.000Z,1.9
2022-11-27T05:59:30.000Z,1.7
2022-11-27T06:02:15.000Z,1.7
2022-11-27T06:05:00.000Z,1.7
2022-11-27T06:07:44.000Z,1.6
2022-11-27T06:10:29.000Z,1.7
2022-11-27T06:13:13.000Z,1.7
2022-11-27T06:14:31.000Z,1.8
2022-11-27T06:15:58.000Z,1.8
2022-11-27T06:18:43.000Z,1.8
2022-11-27T06:21:27.000Z,1.9
2022-11-27T06:24:12.000Z,1.9
2022-11-27T06:26:57.000Z,1.9
2022-11-27T06:29:41.000Z,1.9
2022-11-27T06:32:26.000Z,1.9
2022-11-27T06:35:11.000Z,1.9
2022-11-27T06:37:55.000Z,1.9
2022-11-27T06:40:40.000Z,1.8
2022-11-27T06:41:58.000Z,1.8
2022-11-27T06:43:25.000Z,1.8
2022-11-27T06:46:09.000Z,1.8
2022-11-27T06:48:54.000Z,1.8
2022-11-27T06:51:38.000Z,1.9
2022-11-27T06:54:23.000Z,1.9
2022-11-27T06:57:08.000Z,2
2022-11-27T06:59:52.000Z,2.1
2022-11-27T07:02:37.000Z,2.1
2022-11-27T07:05:22.000Z,2.1
2022-11-27T07:08:06.000Z,2.1
2022-11-27T07:09:24.000Z,2.1
2022-11-27T07:10:51.000Z,2.2
2022-11-27T07:13:36.000Z,2.2
2022-11-27T07:16:20.000Z,2.2
2022-11-27T07:19:05.000Z,2.3
2022-11-27T07:21:49.000Z,2.4
2022-11-27T07:24:34.000Z,2.6
2022-11-27T07:27:19.000Z,2.7
2022-11-27T07:30:03.000Z,2.8
2022-11-27T07:32:48.000Z,2.8
2022-11-27T07:35:33.000Z,2.9
2022-11-27T07:36:50.000Z,3
2022-11-27T07:38:17.000Z,3
2022-11-27T07:41:02.000Z,3.1
2022-11-27T07:43:47.000Z,3.1
2022-11-27T07:46:31.000Z,3.2
2022-11-27T07:49:16.000Z,3.3
2022-11-27T07:52:01.000Z,3.4
2022-11-27T07:54:45.000Z,3.4
2022-11-27T07:57:30.000Z,3.5
2022-11-27T08:00:14.000Z,3.6
2022-11-27T08:02:59.000Z,3.7
2022-11-27T08:04:17.000Z,3.7
2022-11-27T08:05:44.000Z,3.8
2022-11-27T08:08:28.000Z,3.8
2022-11-27T08:11:13.000Z,3.8
2022-11-27T08:13:58.000Z,3.9
2022-11-27T08:16:42.000Z,3.9
2022-11-27T08:19:27.000Z,4
2022-11-27T08:22:12.000Z,4.1
2022-11-27T08:24:56.000Z,4.1
2022-11-27T08:27:41.000Z,4.3
2022-11-27T08:30:26.000Z,4.4
2022-11-27T08:31:43.000Z,4.5
2022-11-27T08:33:10.000Z,4.6
2022-11-27T08:35:55.000Z,4.7
2022-11-27T08:38:39.000Z,4.8
2022-11-27T08:41:24.000Z,5
2022-11-27T08:44:09.000Z,5.1
2022-11-27T08:46:53.000Z,5.3
2022-11-27T08:49:38.000Z,5.4
2022-11-27T08:52:23.000Z,5.4
2022-11-27T08:55:07.000Z,5.6
2022-11-27T08:57:52.000Z,5.7
2022-11-27T08:59:10.000Z,5.8
2022-11-27T09:00:37.000Z,5.8
2022-11-27T09:03:21.000Z,5.9
2022-11-27T09:06:06.000Z,6.1
2022-11-27T09:08:50.000Z,6.6
2022-11-27T09:11:35.000Z,6.7
2022-11-27T09:14:20.000Z,7
2022-11-27T09:17:04.000Z,7.3
2022-11-27T09:19:49.000Z,7.4
2022-11-27T09:22:34.000Z,7.3
2022-11-27T09:25:18.000Z,7.3
2022-11-27T09:26:36.000Z,7.1
2022-11-27T09:28:03.000Z,6.9
2022-11-27T09:30:48.000Z,6.8
2022-11-27T09:33:32.000Z,6.6
2022-11-27T09:36:17.000Z,6.5
2022-11-27T09:39:02.000Z,6.5
2022-11-27T09:41:46.000Z,6.5
2022-11-27T09:44:31.000Z,6.6
2022-11-27T09:47:15.000Z,6.7
2022-11-27T09:50:00.000Z,6.7
2022-11-27T09:52:45.000Z,6.8
2022-11-27T09:54:03.000Z,6.9
2022-11-27T09:55:29.000Z,6.9
2022-11-27T09:58:14.000Z,6.9
2022-11-27T10:00:59.000Z,6.9
2022-11-27T10:03:43.000Z,7
2022-11-27T10:06:28.000Z,7.1
2022-11-27T10:09:13.000Z,7.1
2022-11-27T10:11:57.000Z,7
2022-11-27T10:14:42.000Z,7
2022-11-27T10:17:27.000Z,7
2022-11-27T10:20:11.000Z,6.9
2022-11-27T10:21:29.000Z,6.9
2022-11-27T10:22:56.000Z,6.9
2022-11-27T10:25:40.000Z,7
2022-11-27T10:28:25.000Z,7
2022-11-27T10:31:10.000Z,7
2022-11-27T10:33:54.000Z,7
2022-11-27T10:36:39.000Z,6.9
2022-11-27T10:39:24.000Z,6.9
2022-11-27T10:42:08.000Z,6.8
2022-11-27T10:44:53.000Z,6.7
2022-11-27T10:47:38.000Z,6.7
2022-11-27T10:48:55.000Z,6.7
2022-11-27T10:50:22.000Z,6.7
2022-11-27T10:53:07.000Z,6.7
2022-11-27T10:55:52.000Z,6.7
2022-11-27T10:58:36.000Z,6.8
2022-11-27T11:01:21.000Z,6.8
2022-11-27T11:04:05.000Z,6.8
2022-11-27T11:06:50.000Z,6.8
2022-11-27T11:09:35.000Z,6.8
2022-11-27T11:12:19.000Z,6.8
2022-11-27T11:15:04.000Z,6.8
2022-11-27T11:16:22.000Z,6.8
2022-11-27T11:17:49.000Z,6.8
2022-11-27T11:20:33.000Z,6.9
2022-11-27T11:23:18.000Z,7
2022-11-27T11:26:03.000Z,7
2022-11-27T11:28:47.000Z,7
2022-11-27T11:31:32.000Z,7
2022-11-27T11:34:16.000Z,7
2022-11-27T11:37:01.000Z,7.1
2022-11-27T11:39:46.000Z,7.1
2022-11-27T11:42:30.000Z,7.1
2022-11-27T11:43:48.000Z,7.1
2022-11-27T11:45:15.000Z,7
2022-11-27T11:48:00.000Z,7.1
2022-11-27T11:50:44.000Z,7.1
2022-11-27T11:53:29.000Z,7.1
2022-11-27T11:56:14.000Z,7.1
2022-11-27T11:58:58.000Z,7.2
2022-11-27T12:01:43.000Z,7.2
2022-11-27T12:04:28.000Z,7.2
2022-11-27T12:07:12.000Z,7.3
2022-11-27T12:09:57.000Z,7.4
2022-11-27T12:11:15.000Z,7.4
2022-11-27T12:12:41.000Z,7.4
2022-11-27T12:15:26.000Z,7.4
2022-11-27T12:18:11.000Z,7.5
2022-11-27T12:20:55.000Z,7.5
2022-11-27T12:23:40.000Z,7.6
2022-11-27T12:26:25.000Z,7.6
2022-11-27T12:29:09.000Z,7.6
2022-11-27T12:31:54.000Z,7.7
2022-11-27T12:34:39.000Z,7.7
2022-11-27T12:37:23.000Z,7.7
2022-11-27T12:38:41.000Z,7.7
2022-11-27T12:40:08.000Z,7.7
2022-11-27T12:42:53.000Z,7.7
2022-11-27T12:45:37.000Z,7.7
2022-11-27T12:48:22.000Z,7.7
2022-11-27T12:51:06.000Z,7.7
2022-11-27T12:53:51.000Z,7.7
2022-11-27T12:56:36.000Z,7.7
2022-11-27T12:59:20.000Z,7.7
2022-11-27T13:02:05.000Z,7.7
2022-11-27T13:04:50.000Z,7.8
2022-11-27T13:06:08.000Z,7.8
2022-11-27T13:07:34.000Z,7.8
2022-11-27T13:10:19.000Z,7.8
2022-11-27T13:13:04.000Z,7.9
2022-11-27T13:15:48.000Z,7.9
2022-11-27T13:18:33.000Z,7.9
2022-11-27T13:21:17.000Z,7.9
2022-11-27T13:24:02.000Z,8
2022-11-27T13:26:47.000Z,8
2022-11-27T13:29:31.000Z,8
2022-11-27T13:32:16.000Z,8.1
2022-11-27T13:33:34.000Z,8.1
2022-11-27T13:35:01.000Z,8.1
2022-11-27T13:37:45.000Z,8.1
2022-11-27T13:40:30.000Z,8.2
2022-11-27T13:43:15.000Z,8.2
2022-11-27T13:45:59.000Z,8.2
2022-11-27T13:48:44.000Z,8.3
2022-11-27T13:51:28.000Z,8.3
2022-11-27T13:54:13.000Z,8.3
2022-11-27T13:56:58.000Z,8.2
2022-11-27T13:59:42.000Z,8.3
2022-11-27T14:01:00.000Z,8.3
2022-11-27T14:02:27.000Z,8.3
2022-11-27T14:05:12.000Z,8.3
2022-11-27T14:07:56.000Z,8.3
2022-11-27T14:10:41.000Z,8.3
2022-11-27T14:13:26.000Z,8.2
2022-11-27T14:16:10.000Z,8.1
2022-11-27T14:18:55.000Z,8.1
2022-11-27T14:21:56.000Z,7.9
2022-11-27T14:24:41.000Z,7.9
2022-11-27T14:27:25.000Z,7.8
2022-11-27T14:28:43.000Z,7.7
2022-11-27T14:30:10.000Z,7.7
2022-11-27T14:32:54.000Z,7.6
2022-11-27T14:35:39.000Z,7.5
2022-11-27T14:38:24.000Z,7.5
2022-11-27T14:41:08.000Z,7.4
2022-11-27T14:43:53.000Z,7.4
2022-11-27T14:46:38.000Z,7.3
2022-11-27T14:49:22.000Z,7.3
2022-11-27T14:52:07.000Z,7.3
2022-11-27T14:54:52.000Z,7.2
2022-11-27T14:56:09.000Z,7.2
2022-11-27T14:57:36.000Z,7.2
2022-11-27T15:00:21.000Z,7.2
2022-11-27T15:03:06.000Z,7.2
2022-11-27T15:05:50.000Z,7.1
2022-11-27T15:08:35.000Z,7.2
2022-11-27T15:11:19.000Z,7.2
2022-11-27T15:14:04.000Z,7.2
2022-11-27T15:16:49.000Z,7.1
2022-11-27T15:19:33.000Z,7.1
2022-11-27T15:22:18.000Z,7.1
2022-11-27T15:23:36.000Z,7
2022-11-27T15:25:03.000Z,7
2022-11-27T15:27:47.000Z,7
2022-11-27T15:30:32.000Z,6.9
2022-11-27T15:33:17.000Z,6.9
2022-11-27T15:36:01.000Z,6.9
2022-11-27T15:38:46.000Z,6.8
2022-11-27T15:41:31.000Z,6.8
2022-11-27T15:44:15.000Z,6.8
2022-11-27T15:47:00.000Z,6.9
2022-11-27T15:49:44.000Z,6.9
2022-11-27T15:52:29.000Z,6.9
2022-11-27T15:55:14.000Z,6.9
2022-11-27T15:57:58.000Z,6.9
2022-11-27T16:00:43.000Z,6.9
2022-11-27T16:03:28.000Z,6.9
2022-11-27T16:06:12.000Z,6.9
2022-11-27T16:08:57.000Z,6.9
2022-11-27T16:11:42.000Z,6.9
2022-11-27T16:14:26.000Z,6.9
2022-11-27T16:17:11.000Z,6.8
2022-11-27T16:18:29.000Z,6.7
2022-11-27T16:19:55.000Z,6.8
2022-11-27T16:22:40.000Z,6.8
2022-11-27T16:25:25.000Z,6.7
2022-11-27T16:28:09.000Z,6.7
2022-11-27T16:30:54.000Z,6.8
2022-11-27T16:33:39.000Z,6.8
2022-11-27T16:36:23.000Z,6.8
2022-11-27T16:39:08.000Z,6.8
2022-11-27T16:41:53.000Z,6.8
2022-11-27T16:44:37.000Z,6.8
2022-11-27T16:45:55.000Z,6.8
2022-11-27T16:47:22.000Z,6.8
2022-11-27T16:50:07.000Z,6.8
2022-11-27T16:52:51.000Z,6.8
2022-11-27T16:55:36.000Z,6.8
2022-11-27T16:58:20.000Z,6.8
2022-11-27T17:01:05.000Z,6.9
2022-11-27T17:03:50.000Z,6.9
2022-11-27T17:06:34.000Z,6.9
2022-11-27T17:09:19.000Z,6.9
2022-11-27T17:12:04.000Z,6.8
2022-11-27T17:13:21.000Z,6.9
2022-11-27T17:14:48.000Z,6.9
2022-11-27T17:17:33.000Z,6.9
2022-11-27T17:20:18.000Z,7
2022-11-27T17:23:02.000Z,7
2022-11-27T17:25:47.000Z,7
2022-11-27T17:28:32.000Z,7
2022-11-27T17:31:16.000Z,7
2022-11-27T17:34:01.000Z,7
2022-11-27T17:36:45.000Z,6.9
2022-11-27T17:39:30.000Z,6.9
2022-11-27T17:40:48.000Z,6.8
2022-11-27T17:42:15.000Z,6.7
2022-11-27T17:44:59.000Z,6.7
2022-11-27T17:47:44.000Z,6.7
2022-11-27T17:50:29.000Z,6.7
2022-11-27T17:53:13.000Z,6.7
2022-11-27T17:55:58.000Z,6.7
2022-11-27T17:58:43.000Z,6.7
2022-11-27T18:01:27.000Z,6.7
2022-11-27T18:04:12.000Z,6.7
2022-11-27T18:06:57.000Z,6.7
2022-11-27T18:08:14.000Z,6.7
2022-11-27T18:09:41.000Z,6.7
2022-11-27T18:12:26.000Z,6.8
2022-11-27T18:15:10.000Z,6.8
2022-11-27T18:17:55.000Z,6.8
2022-11-27T18:20:40.000Z,6.9
2022-11-27T18:23:24.000Z,6.9
2022-11-27T18:26:09.000Z,6.9
2022-11-27T18:28:54.000Z,6.9
2022-11-27T18:31:38.000Z,6.9
2022-11-27T18:34:23.000Z,6.8
2022-11-27T18:37:08.000Z,6.9
2022-11-27T18:39:52.000Z,6.9
2022-11-27T18:42:37.000Z,6.9
2022-11-27T18:45:22.000Z,6.9
2022-11-27T18:48:06.000Z,6.9
2022-11-27T18:50:51.000Z,7
2022-11-27T18:53:35.000Z,7
2022-11-27T18:56:20.000Z,7
2022-11-27T18:59:05.000Z,7
2022-11-27T19:01:49.000Z,7
2022-11-27T19:03:07.000Z,6.9
2022-11-27T19:04:34.000Z,6.9
2022-11-27T19:07:19.000Z,6.9
2022-11-27T19:10:03.000Z,6.8
2022-11-27T19:12:48.000Z,6.7
2022-11-27T19:15:33.000Z,6.7
2022-11-27T19:18:17.000Z,6.7
2022-11-27T19:21:02.000Z,6.7
2022-11-27T19:23:47.000Z,6.7
2022-11-27T19:26:31.000Z,6.6
2022-11-27T19:29:16.000Z,6.6
2022-11-27T19:30:34.000Z,6.6
2022-11-27T19:32:00.000Z,6.6
2022-11-27T19:34:45.000Z,6.6
2022-11-27T19:37:30.000Z,6.6
2022-11-27T19:40:14.000Z,6.6
2022-11-27T19:42:59.000Z,6.6
2022-11-27T19:45:44.000Z,6.5
2022-11-27T19:48:28.000Z,6.6
2022-11-27T19:51:13.000Z,6.6
2022-11-27T19:53:58.000Z,6.6
2022-11-27T19:56:42.000Z,6.6
2022-11-27T19:58:00.000Z,6.5
2022-11-27T19:59:27.000Z,6.6
2022-11-27T20:02:11.000Z,6.5
2022-11-27T20:04:56.000Z,6.5
2022-11-27T20:07:41.000Z,6.6
2022-11-27T20:10:25.000Z,6.6
2022-11-27T20:13:10.000Z,6.5
2022-11-27T20:15:55.000Z,6.6
2022-11-27T20:18:39.000Z,6.5
2022-11-27T20:21:24.000Z,6.6
2022-11-27T20:24:09.000Z,6.6
2022-11-27T20:25:27.000Z,6.6
2022-11-27T20:26:53.000Z,6.6
2022-11-27T20:29:38.000Z,6.6
2022-11-27T20:32:23.000Z,6.6
2022-11-27T20:35:07.000Z,6.6
2022-11-27T20:37:52.000Z,6.6
2022-11-27T20:40:36.000Z,6.6
2022-11-27T20:43:21.000Z,6.6
2022-11-27T20:46:06.000Z,6.6
2022-11-27T20:48:50.000Z,6.6
2022-11-27T20:51:35.000Z,6.6
2022-11-27T20:52:53.000Z,6.6
2022-11-27T20:54:20.000Z,6.6
2022-11-27T20:57:04.000Z,6.6
2022-11-27T20:59:49.000Z,6.6
2022-11-27T21:02:34.000Z,6.6
2022-11-27T21:05:18.000Z,6.6
2022-11-27T21:08:03.000Z,6.6
2022-11-27T21:10:48.000Z,6.5
2022-11-27T21:13:32.000Z,6.5
2022-11-27T21:16:17.000Z,6.5
2022-11-27T21:19:01.000Z,6.5
2022-11-27T21:20:19.000Z,6.6
2022-11-27T21:21:46.000Z,6.6
2022-11-27T21:24:31.000Z,6.5
2022-11-27T21:27:15.000Z,6.6
2022-11-27T21:30:00.000Z,6.5
2022-11-27T21:32:45.000Z,6.6
2022-11-27T21:35:29.000Z,6.5
2022-11-27T21:38:14.000Z,6.5
2022-11-27T21:40:59.000Z,6.5
2022-11-27T21:43:43.000Z,6.5
2022-11-27T21:46:28.000Z,6.5
2022-11-27T21:47:46.000Z,6.5
2022-11-27T21:49:13.000Z,6.5
2022-11-27T21:51:57.000Z,6.5
2022-11-27T21:54:42.000Z,6.5
2022-11-27T21:57:26.000Z,6.6
2022-11-27T22:00:11.000Z,6.6
2022-11-27T22:02:56.000Z,6.6
2022-11-27T22:05:40.000Z,6.6
2022-11-27T22:08:25.000Z,6.6
2022-11-27T22:11:10.000Z,6.6
2022-11-27T22:13:54.000Z,6.7
2022-11-27T22:15:12.000Z,6.7
2022-11-27T22:16:39.000Z,6.7
2022-11-27T22:19:24.000Z,6.7
2022-11-27T22:22:08.000Z,6.8
2022-11-27T22:24:53.000Z,6.7
2022-11-27T22:27:38.000Z,6.7
2022-11-27T22:30:22.000Z,6.6
2022-11-27T22:33:07.000Z,6.6
2022-11-27T22:35:51.000Z,6.7
2022-11-27T22:38:36.000Z,6.6
2022-11-27T22:41:21.000Z,6.7
2022-11-27T22:42:39.000Z,6.8
2022-11-27T22:44:22.000Z,6.9
2022-11-27T22:47:06.000Z,6.9
2022-11-27T22:49:51.000Z,6.8
2022-11-27T22:52:36.000Z,6.8
2022-11-27T22:55:20.000Z,6.8
2022-11-27T22:58:05.000Z,6.8
2022-11-27T23:00:50.000Z,6.8
2022-11-27T23:03:34.000Z,6.8
2022-11-27T23:06:19.000Z,6.8
2022-11-27T23:09:04.000Z,6.8
2022-11-27T23:10:21.000Z,6.8
2022-11-27T23:11:48.000Z,6.8
2022-11-27T23:14:33.000Z,6.8
2022-11-27T23:17:17.000Z,6.8
2022-11-27T23:20:02.000Z,6.9
2022-11-27T23:22:47.000Z,6.9
2022-11-27T23:25:31.000Z,6.9
2022-11-27T23:28:16.000Z,6.9
2022-11-27T23:31:01.000Z,6.9
2022-11-27T23:33:45.000Z,6.9
2022-11-27T23:36:30.000Z,6.9
2022-11-27T23:37:48.000Z,6.9
2022-11-27T23:39:15.000Z,6.9
2022-11-27T23:41:59.000Z,6.9
2022-11-27T23:44:44.000Z,7
2022-11-27T23:47:29.000Z,7
2022-11-27T23:50:13.000Z,6.9
2022-11-27T23:52:58.000Z,6.8
2022-11-27T23:55:42.000Z,6.8
2022-11-27T23:58:27.000Z,6.7
